createdAt,value
2022-10-03T00:00:10.006Z,5.49
2022-10-03T00:03:04.297Z,5.39
2022-10-03T00:05:42.310Z,5.38
2022-10-03T00:08:18.686Z,5.31
2022-10-03T00:10:58.505Z,5.32
2022-10-03T00:13:33.435Z,5.34
2022-10-03T00:16:10.131Z,5.32
2022-10-03T00:18:50.266Z,5.36
2022-10-03T00:21:27.647Z,5.45
2022-10-03T00:24:03.974Z,5.48
2022-10-03T00:26:39.506Z,5.47
2022-10-03T00:29:41.026Z,5.46
2022-10-03T00:32:19.926Z,5.44
2022-10-03T00:35:08.415Z,5.39
2022-10-03T00:37:39.068Z,5.34
2022-10-03T00:40:39.699Z,5.36
2022-10-03T00:43:43.536Z,5.30
2022-10-03T00:46:37.459Z,5.24
2022-10-03T00:49:28.236Z,5.20
2022-10-03T00:52:05.186Z,5.23
2022-10-03T00:54:45.965Z,5.36
2022-10-03T00:57:24.885Z,5.42
2022-10-03T01:00:06.998Z,5.41
2022-10-03T01:02:48.987Z,5.36
2022-10-03T01:05:25.373Z,5.39
2022-10-03T01:08:21.173Z,5.37
2022-10-03T01:10:54.926Z,5.35
2022-10-03T01:13:33.499Z,5.32
2022-10-03T01:16:13.164Z,5.30
2022-10-03T01:18:52.787Z,5.27
2022-10-03T01:21:30.415Z,5.25
2022-10-03T01:24:20.786Z,5.12
2022-10-03T01:26:57.725Z,5.10
2022-10-03T01:29:57.755Z,5.05
2022-10-03T01:32:32.149Z,5.06
2022-10-03T01:35:08.413Z,5.15
2022-10-03T01:37:42.558Z,5.21
2022-10-03T01:40:18.156Z,5.18
2022-10-03T01:42:57.425Z,5.14
2022-10-03T01:45:31.313Z,5.12
2022-10-03T01:48:02.728Z,5.11
2022-10-03T01:50:36.627Z,5.09
2022-10-03T01:53:09.353Z,5.04
2022-10-03T01:55:51.246Z,5.06
2022-10-03T01:58:27.393Z,5.08
2022-10-03T02:01:01.311Z,4.99
2022-10-03T02:03:32.378Z,4.94
2022-10-03T02:06:04.788Z,4.96
2022-10-03T02:08:43.330Z,4.91
2022-10-03T02:11:12.729Z,4.83
2022-10-03T02:13:45.919Z,4.75
2022-10-03T02:16:22.946Z,4.72
2022-10-03T02:18:53.713Z,4.77
2022-10-03T02:21:23.928Z,4.75
2022-10-03T02:24:06.579Z,4.70
2022-10-03T02:27:07.673Z,4.60
2022-10-03T02:30:04.442Z,4.55
2022-10-03T02:33:20.189Z,4.47
2022-10-03T02:36:09.349Z,4.46
2022-10-03T02:38:59.848Z,4.43
2022-10-03T02:41:44.098Z,4.43
2022-10-03T02:44:23.560Z,4.45
2022-10-03T02:47:23.478Z,4.55
2022-10-03T02:50:31.448Z,4.66
2022-10-03T02:53:48.510Z,4.80
2022-10-03T02:56:34.548Z,4.91
2022-10-03T02:59:44.399Z,5.06
2022-10-03T03:02:42.258Z,5.20
2022-10-03T03:05:38.178Z,5.25
2022-10-03T03:08:38.639Z,5.36
2022-10-03T03:11:18.878Z,5.45
2022-10-03T03:14:09.799Z,5.52
2022-10-03T03:16:57.388Z,5.48
2022-10-03T03:19:44.021Z,5.49
2022-10-03T03:22:28.178Z,5.51
2022-10-03T03:25:07.939Z,5.57
2022-10-03T03:27:43.168Z,5.61
2022-10-03T03:30:13.228Z,5.74
2022-10-03T03:32:52.178Z,5.76
2022-10-03T03:35:28.477Z,5.74
2022-10-03T03:38:08.473Z,5.69
2022-10-03T03:40:42.094Z,5.67
2022-10-03T03:43:27.180Z,5.66
2022-10-03T03:46:04.571Z,5.70
2022-10-03T03:48:50.674Z,5.71
2022-10-03T03:51:24.954Z,5.70
2022-10-03T03:54:26.311Z,5.70
2022-10-03T03:57:14.600Z,5.75
2022-10-03T04:00:13.860Z,5.76
2022-10-03T04:03:04.917Z,5.80
2022-10-03T04:05:43.484Z,5.84
2022-10-03T04:08:31.511Z,5.85
2022-10-03T04:11:13.801Z,5.92
2022-10-03T04:13:57.237Z,5.91
2022-10-03T04:16:59.182Z,5.85
2022-10-03T04:19:34.482Z,5.74
2022-10-03T04:22:23.693Z,5.67
2022-10-03T04:25:18.335Z,5.60
2022-10-03T04:28:07.582Z,5.62
2022-10-03T04:30:44.223Z,5.64
2022-10-03T04:33:27.152Z,5.69
2022-10-03T04:36:28.084Z,5.80
2022-10-03T04:39:03.381Z,5.80
2022-10-03T04:41:42.918Z,5.87
2022-10-03T04:44:28.195Z,5.91
2022-10-03T04:46:57.785Z,6.06
2022-10-03T04:49:32.471Z,6.10
2022-10-03T04:52:04.251Z,6.16
2022-10-03T04:54:43.684Z,6.21
2022-10-03T04:57:22.230Z,6.25
2022-10-03T04:59:55.841Z,6.26
2022-10-03T05:02:34.631Z,6.28
2022-10-03T05:05:27.074Z,6.26
2022-10-03T05:08:01.556Z,6.22
2022-10-03T05:10:48.812Z,6.22
2022-10-03T05:13:21.403Z,6.24
2022-10-03T05:16:01.754Z,6.26
2022-10-03T05:18:35.871Z,6.35
2022-10-03T05:21:10.923Z,6.35
2022-10-03T05:23:52.942Z,6.43
2022-10-03T05:26:45.780Z,6.44
2022-10-03T05:29:22.382Z,6.50
2022-10-03T05:32:00.936Z,6.56
2022-10-03T05:34:35.671Z,6.62
2022-10-03T05:37:21.363Z,6.65
2022-10-03T05:39:57.794Z,6.73
2022-10-03T05:42:37.435Z,6.77
2022-10-03T05:45:08.313Z,6.82
2022-10-03T05:47:49.656Z,6.89
2022-10-03T05:50:37.125Z,6.99
2022-10-03T05:53:27.533Z,7.06
2022-10-03T05:56:06.405Z,7.17
2022-10-03T05:58:58.786Z,7.24
2022-10-03T06:01:59.468Z,7.34
2022-10-03T06:05:18.393Z,7.40
2022-10-03T06:08:07.704Z,7.46
2022-10-03T06:10:45.563Z,7.55
2022-10-03T06:13:20.873Z,7.60
2022-10-03T06:15:55.591Z,7.68
2022-10-03T06:18:53.629Z,7.78
2022-10-03T06:21:47.588Z,7.88
2022-10-03T06:24:36.373Z,7.97
2022-10-03T06:27:52.730Z,8.01
2022-10-03T06:30:23.235Z,8.07
2022-10-03T06:33:33.233Z,8.19
2022-10-03T06:36:31.027Z,8.24
2022-10-03T06:39:44.440Z,8.32
2022-10-03T06:42:47.585Z,8.51
2022-10-03T06:45:42.567Z,8.56
2022-10-03T06:48:29.802Z,8.63
2022-10-03T06:51:10.367Z,8.72
2022-10-03T06:53:50.579Z,8.78
2022-10-03T06:57:03.347Z,8.77
2022-10-03T06:59:50.510Z,8.90
2022-10-03T07:02:36.280Z,9.02
2022-10-03T07:05:40.522Z,9.10
2022-10-03T07:08:48.841Z,9.22
2022-10-03T07:11:34.897Z,9.27
2022-10-03T07:14:28.511Z,9.42
2022-10-03T07:17:28.940Z,9.47
2022-10-03T07:20:24.480Z,9.65
2022-10-03T07:23:26.825Z,9.68
2022-10-03T07:26:28.267Z,9.78
2022-10-03T07:29:14.717Z,9.82
2022-10-03T07:31:55.567Z,9.93
2022-10-03T07:35:00.027Z,10.01
2022-10-03T07:38:02.997Z,10.26
2022-10-03T07:41:00.479Z,10.48
2022-10-03T07:43:56.530Z,10.49
2022-10-03T07:47:18.791Z,10.57
2022-10-03T07:50:19.859Z,10.73
2022-10-03T07:53:08.468Z,10.91
2022-10-03T07:56:00.627Z,10.96
2022-10-03T07:58:47.098Z,11.26
2022-10-03T08:01:31.140Z,11.12
2022-10-03T08:04:34.133Z,10.85
2022-10-03T08:07:13.284Z,10.65
2022-10-03T08:09:59.502Z,10.52
2022-10-03T08:12:50.242Z,11.00
2022-10-03T08:15:26.610Z,11.17
2022-10-03T08:18:07.285Z,11.44
2022-10-03T08:20:55.791Z,11.47
2022-10-03T08:23:46.672Z,11.61
2022-10-03T08:26:20.963Z,11.64
2022-10-03T08:29:02.662Z,11.57
2022-10-03T08:32:00.491Z,11.73
2022-10-03T08:35:04.182Z,11.79
2022-10-03T08:38:00.013Z,11.90
2022-10-03T08:41:01.841Z,12.07
2022-10-03T08:44:02.534Z,12.07
2022-10-03T08:47:01.785Z,12.38
2022-10-03T08:50:05.294Z,12.35
2022-10-03T08:52:43.684Z,12.49
2022-10-03T08:55:32.357Z,12.36
2022-10-03T08:58:16.623Z,12.28
2022-10-03T09:01:04.464Z,12.65
2022-10-03T09:04:04.564Z,13.06
2022-10-03T09:07:18.301Z,13.65
2022-10-03T09:10:08.755Z,13.65
2022-10-03T09:13:04.155Z,13.58
2022-10-03T09:16:26.172Z,13.31
2022-10-03T09:19:04.387Z,13.43
2022-10-03T09:21:45.978Z,13.34
2022-10-03T09:25:15.667Z,13.20
2022-10-03T09:28:19.216Z,13.02
2022-10-03T09:30:55.197Z,13.57
2022-10-03T09:34:01.044Z,13.60
2022-10-03T09:37:11.698Z,13.36
2022-10-03T09:40:17.379Z,13.27
2022-10-03T09:43:18.122Z,12.57
2022-10-03T09:46:22.257Z,12.75
2022-10-03T09:49:19.345Z,12.94
2022-10-03T09:51:58.424Z,13.31
2022-10-03T09:54:53.985Z,13.22
2022-10-03T10:00:22.942Z,12.74
2022-10-03T10:03:16.444Z,12.76
2022-10-03T10:06:06.364Z,12.75
2022-10-03T10:09:04.699Z,12.81
2022-10-03T10:12:04.687Z,12.83
2022-10-03T10:14:50.036Z,12.83
2022-10-03T10:17:56.812Z,12.83
2022-10-03T10:21:15.558Z,13.49
2022-10-03T10:23:54.735Z,14.04
2022-10-03T10:29:49.285Z,13.67
2022-10-03T10:33:01.522Z,13.67
2022-10-03T10:35:57.883Z,13.64
2022-10-03T10:38:36.037Z,13.78
2022-10-03T10:41:45.983Z,13.51
2022-10-03T10:44:43.224Z,13.67
2022-10-03T10:47:49.004Z,13.87
2022-10-03T10:50:56.137Z,13.69
2022-10-03T10:54:00.661Z,13.47
2022-10-03T10:57:04.626Z,13.41
2022-10-03T11:00:15.344Z,13.58
2022-10-03T11:03:25.604Z,13.77
2022-10-03T11:06:24.565Z,14.40
2022-10-03T11:09:43.325Z,14.40
2022-10-03T11:13:00.981Z,14.25
2022-10-03T11:16:06.059Z,14.24
2022-10-03T11:19:18.785Z,14.42
2022-10-03T11:22:40.558Z,14.74
2022-10-03T11:26:08.345Z,14.76
2022-10-03T11:29:30.004Z,14.57
2022-10-03T11:32:49.513Z,14.79
2022-10-03T11:35:36.750Z,14.98
2022-10-03T11:38:08.814Z,14.89
2022-10-03T11:40:45.544Z,14.59
2022-10-03T11:43:49.558Z,14.74
2022-10-03T11:46:27.605Z,14.50
2022-10-03T11:49:01.236Z,14.25
2022-10-03T11:51:39.226Z,14.47
2022-10-03T11:54:30.666Z,15.00
2022-10-03T11:57:03.043Z,15.42
2022-10-03T11:59:48.224Z,15.29
2022-10-03T12:02:28.713Z,15.28
2022-10-03T12:05:00.102Z,15.33
2022-10-03T12:08:02.897Z,15.49
2022-10-03T12:10:39.325Z,15.61
2022-10-03T12:13:15.193Z,15.30
2022-10-03T12:15:46.603Z,15.05
2022-10-03T12:18:20.942Z,14.58
2022-10-03T12:21:07.764Z,14.58
2022-10-03T12:23:58.814Z,14.44
2022-10-03T12:26:33.768Z,13.88
2022-10-03T12:29:02.284Z,13.51
2022-10-03T12:31:36.345Z,13.25
2022-10-03T12:34:32.943Z,13.12
2022-10-03T12:37:12.163Z,12.84
2022-10-03T12:39:46.385Z,12.64
2022-10-03T12:42:26.942Z,12.73
2022-10-03T12:44:59.869Z,12.77
2022-10-03T12:48:01.313Z,12.78
2022-10-03T12:50:41.094Z,12.95
2022-10-03T12:53:38.945Z,13.58
2022-10-03T12:56:13.084Z,14.40
2022-10-03T12:58:52.534Z,14.98
2022-10-03T13:01:29.328Z,14.60
2022-10-03T13:04:00.147Z,14.50
2022-10-03T13:07:02.415Z,14.21
2022-10-03T13:09:47.006Z,14.31
2022-10-03T13:12:27.493Z,14.31
2022-10-03T13:15:41.822Z,14.33
2022-10-03T13:18:21.105Z,14.06
2022-10-03T13:20:57.422Z,14.54
2022-10-03T13:23:36.795Z,14.84
2022-10-03T13:26:13.674Z,16.14
2022-10-03T13:28:59.570Z,19.07
2022-10-03T13:31:31.473Z,20.63
2022-10-03T13:34:01.564Z,21.13
2022-10-03T13:36:32.416Z,21.25
2022-10-03T13:39:11.845Z,21.90
2022-10-03T13:41:53.044Z,23.43
2022-10-03T13:44:24.642Z,23.40
2022-10-03T13:46:57.694Z,24.31
2022-10-03T13:49:32.340Z,25.20
2022-10-03T13:52:03.424Z,23.86
2022-10-03T13:54:52.584Z,21.58
2022-10-03T13:57:25.387Z,19.05
2022-10-03T14:00:05.012Z,18.57
2022-10-03T14:03:01.858Z,21.85
2022-10-03T14:05:52.157Z,21.76
2022-10-03T14:08:44.003Z,22.51
2022-10-03T14:11:22.894Z,23.17
2022-10-03T14:14:08.814Z,19.99
2022-10-03T14:16:40.063Z,18.45
2022-10-03T14:19:14.434Z,18.67
2022-10-03T14:22:02.365Z,18.83
2022-10-03T14:24:44.428Z,22.35
2022-10-03T14:27:42.645Z,23.76
2022-10-03T14:30:13.826Z,25.10
2022-10-03T14:32:56.520Z,25.02
2022-10-03T14:35:38.291Z,25.31
2022-10-03T14:38:53.314Z,24.87
2022-10-03T14:41:26.117Z,24.81
2022-10-03T14:43:56.918Z,25.03
2022-10-03T14:46:27.230Z,25.73
2022-10-03T14:48:59.414Z,25.15
2022-10-03T14:51:30.504Z,25.96
2022-10-03T14:54:02.890Z,26.04
2022-10-03T14:56:34.670Z,25.26
2022-10-03T14:59:13.184Z,24.83
2022-10-03T15:01:49.509Z,25.13
2022-10-03T15:04:25.524Z,25.63
2022-10-03T15:06:55.264Z,25.38
2022-10-03T15:09:27.424Z,22.07
2022-10-03T15:12:00.617Z,18.83
2022-10-03T15:14:34.025Z,17.40
2022-10-03T15:17:03.168Z,16.39
2022-10-03T15:19:37.204Z,16.15
2022-10-03T15:22:22.707Z,15.64
2022-10-03T15:24:52.442Z,15.45
2022-10-03T15:27:23.152Z,15.31
2022-10-03T15:29:56.875Z,15.24
2022-10-03T15:32:27.784Z,14.85
2022-10-03T15:34:58.572Z,14.61
2022-10-03T15:37:29.456Z,14.31
2022-10-03T15:40:03.005Z,14.46
2022-10-03T15:42:32.993Z,14.06
2022-10-03T15:45:05.640Z,13.99
2022-10-03T15:47:35.413Z,13.76
2022-10-03T15:50:07.387Z,13.69
2022-10-03T15:52:40.984Z,13.47
2022-10-03T15:55:16.053Z,13.24
2022-10-03T15:57:47.374Z,13.13
2022-10-03T16:00:26.333Z,12.90
2022-10-03T16:03:01.948Z,12.62
2022-10-03T16:05:31.061Z,12.38
2022-10-03T16:08:02.746Z,12.16
2022-10-03T16:10:34.945Z,12.05
2022-10-03T16:13:09.263Z,11.77
2022-10-03T16:15:53.861Z,11.64
2022-10-03T16:18:56.342Z,11.45
2022-10-03T16:21:33.417Z,11.28
2022-10-03T16:24:02.907Z,11.16
2022-10-03T16:26:34.736Z,11.05
2022-10-03T16:29:10.037Z,10.86
2022-10-03T16:31:43.983Z,10.66
2022-10-03T16:34:15.341Z,10.45
2022-10-03T16:36:45.284Z,10.27
2022-10-03T16:39:21.437Z,10.05
2022-10-03T16:41:52.464Z,9.85
2022-10-03T16:44:22.435Z,9.69
2022-10-03T16:46:52.694Z,9.49
2022-10-03T16:49:54.123Z,9.25
2022-10-03T16:52:25.058Z,9.17
2022-10-03T16:55:00.403Z,8.96
2022-10-03T16:57:33.914Z,8.97
2022-10-03T17:00:06.919Z,8.85
2022-10-03T17:02:38.126Z,8.70
2022-10-03T17:05:08.825Z,8.53
2022-10-03T17:07:40.255Z,8.42
2022-10-03T17:10:25.469Z,8.38
2022-10-03T17:12:57.909Z,8.30
2022-10-03T17:15:30.234Z,8.35
2022-10-03T17:18:10.854Z,8.22
2022-10-03T17:20:42.174Z,8.16
2022-10-03T17:23:13.194Z,8.00
2022-10-03T17:25:50.277Z,7.92
2022-10-03T17:28:30.199Z,7.84
2022-10-03T17:31:02.436Z,7.73
2022-10-03T17:33:39.701Z,7.56
2022-10-03T17:36:29.674Z,7.64
2022-10-03T17:39:03.807Z,7.64
2022-10-03T17:41:36.225Z,7.53
2022-10-03T17:44:19.518Z,7.42
2022-10-03T17:46:56.338Z,7.27
2022-10-03T17:49:36.504Z,7.17
2022-10-03T17:52:05.271Z,7.13
2022-10-03T17:54:36.115Z,7.04
2022-10-03T17:57:07.762Z,6.88
2022-10-03T17:59:44.747Z,6.79
2022-10-03T18:02:18.976Z,6.72
2022-10-03T18:04:50.995Z,6.68
2022-10-03T18:07:20.458Z,6.61
2022-10-03T18:09:50.144Z,6.65
2022-10-03T18:12:25.714Z,6.67
2022-10-03T18:15:23.015Z,6.68
2022-10-03T18:18:04.904Z,6.64
2022-10-03T18:20:44.118Z,6.64
2022-10-03T18:23:36.698Z,6.60
2022-10-03T18:26:20.059Z,6.50
2022-10-03T18:28:56.595Z,6.41
2022-10-03T18:31:25.500Z,6.36
2022-10-03T18:33:57.462Z,6.32
2022-10-03T18:36:28.305Z,6.30
2022-10-03T18:39:00.094Z,6.21
2022-10-03T18:41:28.849Z,6.25
2022-10-03T18:44:00.224Z,6.17
2022-10-03T18:46:31.254Z,6.17
2022-10-03T18:49:30.207Z,6.07
2022-10-03T18:51:54.895Z,6.02
2022-10-03T18:54:35.574Z,6.06
2022-10-03T18:57:10.518Z,6.05
2022-10-03T18:59:49.288Z,6.02
2022-10-03T19:02:23.309Z,5.96
2022-10-03T19:04:55.662Z,5.88
2022-10-03T19:07:26.407Z,5.85
2022-10-03T19:10:25.897Z,5.75
2022-10-03T19:13:00.245Z,5.72
2022-10-03T19:15:39.164Z,5.70
2022-10-03T19:18:18.624Z,5.57
2022-10-03T19:20:47.872Z,5.51
2022-10-03T19:23:22.988Z,5.63
2022-10-03T19:25:56.844Z,5.68
2022-10-03T19:28:28.817Z,5.62
2022-10-03T19:31:04.965Z,5.54
2022-10-03T19:33:34.564Z,5.46
2022-10-03T19:36:05.806Z,5.34
2022-10-03T19:38:39.132Z,5.28
2022-10-03T19:41:14.789Z,5.25
2022-10-03T19:43:44.497Z,5.30
2022-10-03T19:46:22.701Z,5.25
2022-10-03T19:49:06.704Z,5.12
2022-10-03T19:51:34.977Z,5.13
2022-10-03T19:54:14.305Z,5.08
2022-10-03T19:56:42.834Z,5.04
2022-10-03T19:59:16.031Z,5.07
2022-10-03T20:01:45.828Z,5.06
2022-10-03T20:04:18.972Z,4.96
2022-10-03T20:06:50.127Z,4.89
2022-10-03T20:09:22.887Z,4.85
2022-10-03T20:11:52.493Z,4.76
2022-10-03T20:14:26.744Z,4.74
2022-10-03T20:16:56.825Z,4.83
2022-10-03T20:19:27.205Z,5.08
2022-10-03T20:21:57.076Z,5.07
2022-10-03T20:24:33.144Z,5.10
2022-10-03T20:27:11.445Z,5.05
2022-10-03T20:29:43.544Z,4.87
2022-10-03T20:32:16.260Z,4.80
2022-10-03T20:34:49.145Z,4.75
2022-10-03T20:37:36.774Z,4.69
2022-10-03T20:40:19.854Z,4.68
2022-10-03T20:42:49.636Z,4.64
2022-10-03T20:45:23.792Z,4.62
2022-10-03T20:48:01.492Z,4.57
2022-10-03T20:50:32.757Z,4.64
2022-10-03T20:53:02.686Z,4.61
2022-10-03T20:55:34.703Z,4.55
2022-10-03T20:58:13.923Z,4.49
2022-10-03T21:00:46.147Z,4.40
2022-10-03T21:03:20.698Z,4.39
2022-10-03T21:05:51.724Z,4.32
2022-10-03T21:08:22.978Z,4.30
2022-10-03T21:10:55.884Z,4.28
2022-10-03T21:13:31.914Z,4.23
2022-10-03T21:16:01.683Z,4.20
2022-10-03T21:18:32.587Z,4.26
2022-10-03T21:21:05.926Z,4.25
2022-10-03T21:23:38.444Z,4.23
2022-10-03T21:26:08.785Z,4.16
2022-10-03T21:28:38.813Z,4.12
2022-10-03T21:31:17.876Z,4.09
2022-10-03T21:33:51.605Z,4.07
2022-10-03T21:36:23.764Z,4.02
2022-10-03T21:38:52.803Z,3.98
2022-10-03T21:41:28.324Z,3.92
2022-10-03T21:43:59.228Z,3.85
2022-10-03T21:46:34.464Z,3.79
2022-10-03T21:49:18.694Z,3.87
2022-10-03T21:52:03.564Z,3.87
2022-10-03T21:54:37.565Z,3.83
2022-10-03T21:57:12.237Z,3.76
2022-10-03T21:59:54.715Z,3.75
2022-10-03T22:02:28.605Z,3.82
2022-10-03T22:05:01.365Z,3.82
2022-10-03T22:07:36.646Z,3.79
2022-10-03T22:10:06.913Z,3.76
2022-10-03T22:12:43.743Z,3.88
2022-10-03T22:15:16.900Z,3.87
2022-10-03T22:17:50.824Z,3.88
2022-10-03T22:20:23.055Z,3.82
2022-10-03T22:23:09.054Z,3.73
2022-10-03T22:25:48.349Z,3.69
2022-10-03T22:28:24.761Z,3.58
2022-10-03T22:31:00.222Z,3.64
2022-10-03T22:33:36.368Z,3.77
2022-10-03T22:36:05.096Z,3.78
2022-10-03T22:38:36.294Z,3.72
2022-10-03T22:41:06.841Z,3.68
2022-10-03T22:43:38.495Z,3.60
2022-10-03T22:46:07.842Z,3.52
2022-10-03T22:48:41.011Z,3.45
2022-10-03T22:51:12.026Z,3.43
2022-10-03T22:53:42.202Z,3.40
2022-10-03T22:56:33.200Z,3.39
2022-10-03T22:59:03.481Z,3.31
2022-10-03T23:01:32.531Z,3.13
2022-10-03T23:04:01.243Z,3.19
2022-10-03T23:06:45.201Z,3.19
2022-10-03T23:09:20.547Z,3.16
2022-10-03T23:11:51.111Z,3.19
2022-10-03T23:14:24.019Z,3.24
2022-10-03T23:16:54.956Z,3.18
2022-10-03T23:19:37.731Z,3.19
2022-10-03T23:22:07.392Z,3.08
2022-10-03T23:24:39.841Z,3.13
2022-10-03T23:27:23.281Z,3.13
2022-10-03T23:30:51.130Z,3.07
2022-10-03T23:33:48.461Z,3.09
2022-10-03T23:36:19.055Z,3.05
2022-10-03T23:39:01.655Z,3.01
2022-10-03T23:41:56.830Z,2.99
2022-10-03T23:44:32.842Z,2.94
2022-10-03T23:47:02.655Z,2.95
2022-10-03T23:49:33.306Z,2.85
2022-10-03T23:52:01.645Z,2.80
2022-10-03T23:54:29.913Z,2.89
2022-10-03T23:57:05.452Z,2.88
2022-10-03T23:59:36.692Z,2.85
